sensor_id;sensor_type;location;lat;lon;timestamp;temperature;humidity
15262;DHT22;7733;51.554;13.590;2023-03-05T00:01:31;3.70;99.90
15262;DHT22;7733;51.554;13.590;2023-03-05T00:04:01;3.70;99.90
15262;DHT22;7733;51.554;13.590;2023-03-05T00:06:30;3.60;99.90
15262;DHT22;7733;51.554;13.590;2023-03-05T00:08:57;3.60;99.90
15262;DHT22;7733;51.554;13.590;2023-03-05T00:11:25;3.60;99.90
15262;DHT22;7733;51.554;13.590;2023-03-05T00:13:56;3.70;99.90
15262;DHT22;7733;51.554;13.590;2023-03-05T00:16:23;3.60;99.90
15262;DHT22;7733;51.554;13.590;2023-03-05T00:18:51;3.60;99.90
15262;DHT22;7733;51.554;13.590;2023-03-05T00:21:30;3.60;99.90
15262;DHT22;7733;51.554;13.590;2023-03-05T00:24:06;3.60;99.90
15262;DHT22;7733;51.554;13.590;2023-03-05T00:26:37;3.60;99.90
15262;DHT22;7733;51.554;13.590;2023-03-05T00:29:04;3.50;99.90
15262;DHT22;7733;51.554;13.590;2023-03-05T00:31:33;3.50;99.90
15262;DHT22;7733;51.554;13.590;2023-03-05T00:34:06;3.50;99.90
15262;DHT22;7733;51.554;13.590;2023-03-05T00:36:38;3.50;99.90
15262;DHT22;7733;51.554;13.590;2023-03-05T00:39:05;3.50;99.90
15262;DHT22;7733;51.554;13.590;2023-03-05T00:41:31;3.50;99.90
15262;DHT22;7733;51.554;13.590;2023-03-05T00:43:57;3.40;99.90
15262;DHT22;7733;51.554;13.590;2023-03-05T00:46:23;3.40;99.90
15262;DHT22;7733;51.554;13.590;2023-03-05T00:48:52;3.40;99.90
15262;DHT22;7733;51.554;13.590;2023-03-05T00:51:18;3.40;99.90
15262;DHT22;7733;51.554;13.590;2023-03-05T00:53:44;3.40;99.90
15262;DHT22;7733;51.554;13.590;2023-03-05T00:56:10;3.40;99.90
15262;DHT22;7733;51.554;13.590;2023-03-05T00:58:36;3.40;99.90
15262;DHT22;7733;51.554;13.590;2023-03-05T01:01:04;3.40;99.90
15262;DHT22;7733;51.554;13.590;2023-03-05T01:03:31;3.40;99.90
15262;DHT22;7733;51.554;13.590;2023-03-05T01:05:58;3.30;99.90
15262;DHT22;7733;51.554;13.590;2023-03-05T01:08:25;3.30;99.90
15262;DHT22;7733;51.554;13.590;2023-03-05T01:10:51;3.30;99.90
15262;DHT22;7733;51.554;13.590;2023-03-05T01:13:17;3.30;99.90
15262;DHT22;7733;51.554;13.590;2023-03-05T01:15:43;3.30;99.90
15262;DHT22;7733;51.554;13.590;2023-03-05T01:18:11;3.30;99.90
15262;DHT22;7733;51.554;13.590;2023-03-05T01:20:37;3.20;99.90
15262;DHT22;7733;51.554;13.590;2023-03-05T01:23:02;3.20;99.90
15262;DHT22;7733;51.554;13.590;2023-03-05T01:25:28;3.20;99.90
15262;DHT22;7733;51.554;13.590;2023-03-05T01:27:54;3.20;99.90
15262;DHT22;7733;51.554;13.590;2023-03-05T01:30:21;3.20;99.90
15262;DHT22;7733;51.554;13.590;2023-03-05T01:32:46;3.20;99.90
15262;DHT22;7733;51.554;13.590;2023-03-05T01:35:18;3.20;99.90
15262;DHT22;7733;51.554;13.590;2023-03-05T01:37:47;3.10;99.90
15262;DHT22;7733;51.554;13.590;2023-03-05T01:40:16;3.10;99.90
15262;DHT22;7733;51.554;13.590;2023-03-05T01:42:48;3.10;99.90
15262;DHT22;7733;51.554;13.590;2023-03-05T01:45:19;3.10;99.90
15262;DHT22;7733;51.554;13.590;2023-03-05T01:47:45;3.10;99.90
15262;DHT22;7733;51.554;13.590;2023-03-05T01:50:17;3.10;99.90
15262;DHT22;7733;51.554;13.590;2023-03-05T01:52:54;3.10;99.90
15262;DHT22;7733;51.554;13.590;2023-03-05T01:55:26;3.10;99.90
15262;DHT22;7733;51.554;13.590;2023-03-05T01:58:16;3.10;99.90
15262;DHT22;7733;51.554;13.590;2023-03-05T02:00:47;3.00;99.90
15262;DHT22;7733;51.554;13.590;2023-03-05T02:03:15;3.10;99.90
15262;DHT22;7733;51.554;13.590;2023-03-05T02:05:41;2.90;99.90
15262;DHT22;7733;51.554;13.590;2023-03-05T02:08:14;3.00;99.90
15262;DHT22;7733;51.554;13.590;2023-03-05T02:10:45;2.90;99.90
15262;DHT22;7733;51.554;13.590;2023-03-05T02:13:17;2.90;99.90
15262;DHT22;7733;51.554;13.590;2023-03-05T02:15:55;2.90;99.90
15262;DHT22;7733;51.554;13.590;2023-03-05T02:18:24;2.90;99.90
15262;DHT22;7733;51.554;13.590;2023-03-05T02:23:30;2.90;99.90
15262;DHT22;7733;51.554;13.590;2023-03-05T02:25:58;2.80;99.90
15262;DHT22;7733;51.554;13.590;2023-03-05T02:28:39;2.80;99.90
15262;DHT22;7733;51.554;13.590;2023-03-05T02:31:18;2.80;99.90
15262;DHT22;7733;51.554;13.590;2023-03-05T02:33:46;2.70;99.90
15262;DHT22;7733;51.554;13.590;2023-03-05T02:36:12;2.70;99.90
15262;DHT22;7733;51.554;13.590;2023-03-05T02:38:39;2.70;99.90
15262;DHT22;7733;51.554;13.590;2023-03-05T02:41:07;2.60;99.90
15262;DHT22;7733;51.554;13.590;2023-03-05T02:43:33;2.60;99.90
15262;DHT22;7733;51.554;13.590;2023-03-05T02:45:59;2.60;99.90
15262;DHT22;7733;51.554;13.590;2023-03-05T02:48:25;2.60;99.90
15262;DHT22;7733;51.554;13.590;2023-03-05T02:50:51;2.60;99.90
15262;DHT22;7733;51.554;13.590;2023-03-05T02:53:17;2.60;99.90
15262;DHT22;7733;51.554;13.590;2023-03-05T02:55:46;2.60;99.90
15262;DHT22;7733;51.554;13.590;2023-03-05T02:58:13;2.50;99.90
15262;DHT22;7733;51.554;13.590;2023-03-05T03:00:39;2.50;99.90
15262;DHT22;7733;51.554;13.590;2023-03-05T03:03:05;2.50;99.90
15262;DHT22;7733;51.554;13.590;2023-03-05T03:05:31;2.40;99.90
15262;DHT22;7733;51.554;13.590;2023-03-05T03:07:56;2.40;99.90
15262;DHT22;7733;51.554;13.590;2023-03-05T03:10:23;2.40;99.90
15262;DHT22;7733;51.554;13.590;2023-03-05T03:12:49;2.50;99.90
15262;DHT22;7733;51.554;13.590;2023-03-05T03:15:15;2.50;99.90
15262;DHT22;7733;51.554;13.590;2023-03-05T03:17:42;2.50;99.90
15262;DHT22;7733;51.554;13.590;2023-03-05T03:20:11;2.50;99.90
15262;DHT22;7733;51.554;13.590;2023-03-05T03:22:39;2.40;99.90
15262;DHT22;7733;51.554;13.590;2023-03-05T03:25:07;2.40;99.90
15262;DHT22;7733;51.554;13.590;2023-03-05T03:27:35;2.30;99.90
15262;DHT22;7733;51.554;13.590;2023-03-05T03:30:01;2.40;99.90
15262;DHT22;7733;51.554;13.590;2023-03-05T03:32:29;2.40;99.90
15262;DHT22;7733;51.554;13.590;2023-03-05T03:34:56;2.40;99.90
15262;DHT22;7733;51.554;13.590;2023-03-05T03:37:22;2.40;99.90
15262;DHT22;7733;51.554;13.590;2023-03-05T03:39:48;2.40;99.90
15262;DHT22;7733;51.554;13.590;2023-03-05T03:42:18;2.40;99.90
15262;DHT22;7733;51.554;13.590;2023-03-05T03:44:45;2.30;99.90
15262;DHT22;7733;51.554;13.590;2023-03-05T03:47:10;2.40;99.90
15262;DHT22;7733;51.554;13.590;2023-03-05T03:49:36;2.40;99.90
15262;DHT22;7733;51.554;13.590;2023-03-05T03:52:02;2.40;99.90
15262;DHT22;7733;51.554;13.590;2023-03-05T03:54:28;2.30;99.90
15262;DHT22;7733;51.554;13.590;2023-03-05T03:56:54;2.40;99.90
15262;DHT22;7733;51.554;13.590;2023-03-05T03:59:20;2.40;99.90
15262;DHT22;7733;51.554;13.590;2023-03-05T04:01:46;2.40;99.90
15262;DHT22;7733;51.554;13.590;2023-03-05T04:04:12;2.40;99.90
15262;DHT22;7733;51.554;13.590;2023-03-05T04:06:39;2.40;99.90
15262;DHT22;7733;51.554;13.590;2023-03-05T04:09:05;2.40;99.90
15262;DHT22;7733;51.554;13.590;2023-03-05T04:11:33;2.40;99.90
15262;DHT22;7733;51.554;13.590;2023-03-05T04:13:59;2.30;99.90
15262;DHT22;7733;51.554;13.590;2023-03-05T04:16:25;2.30;99.90
15262;DHT22;7733;51.554;13.590;2023-03-05T04:18:51;2.40;99.90
15262;DHT22;7733;51.554;13.590;2023-03-05T04:21:17;2.40;99.90
15262;DHT22;7733;51.554;13.590;2023-03-05T04:23:43;2.40;99.90
15262;DHT22;7733;51.554;13.590;2023-03-05T04:26:09;2.40;99.90
15262;DHT22;7733;51.554;13.590;2023-03-05T04:28:35;2.40;99.90
15262;DHT22;7733;51.554;13.590;2023-03-05T04:31:01;2.40;99.90
15262;DHT22;7733;51.554;13.590;2023-03-05T04:33:28;2.40;99.90
15262;DHT22;7733;51.554;13.590;2023-03-05T04:35:53;2.40;99.90
15262;DHT22;7733;51.554;13.590;2023-03-05T04:38:20;2.40;99.90
15262;DHT22;7733;51.554;13.590;2023-03-05T04:40:45;2.40;99.90
15262;DHT22;7733;51.554;13.590;2023-03-05T04:43:11;2.40;99.90
15262;DHT22;7733;51.554;13.590;2023-03-05T04:45:41;2.40;99.90
15262;DHT22;7733;51.554;13.590;2023-03-05T04:48:08;2.40;99.90
15262;DHT22;7733;51.554;13.590;2023-03-05T04:50:35;2.40;99.90
15262;DHT22;7733;51.554;13.590;2023-03-05T04:53:02;2.30;99.90
15262;DHT22;7733;51.554;13.590;2023-03-05T04:55:28;2.40;99.90
15262;DHT22;7733;51.554;13.590;2023-03-05T04:57:54;2.40;99.90
15262;DHT22;7733;51.554;13.590;2023-03-05T05:00:20;2.30;99.90
15262;DHT22;7733;51.554;13.590;2023-03-05T05:02:47;2.30;99.90
15262;DHT22;7733;51.554;13.590;2023-03-05T05:05:22;2.30;99.90
15262;DHT22;7733;51.554;13.590;2023-03-05T05:07:54;2.20;99.90
15262;DHT22;7733;51.554;13.590;2023-03-05T05:10:21;2.20;99.90
15262;DHT22;7733;51.554;13.590;2023-03-05T05:12:47;2.30;99.90
15262;DHT22;7733;51.554;13.590;2023-03-05T05:15:13;2.20;99.90
15262;DHT22;7733;51.554;13.590;2023-03-05T05:17:38;2.20;99.90
15262;DHT22;7733;51.554;13.590;2023-03-05T05:20:05;2.10;99.90
15262;DHT22;7733;51.554;13.590;2023-03-05T05:22:33;2.20;99.90
15262;DHT22;7733;51.554;13.590;2023-03-05T05:24:59;2.20;99.90
15262;DHT22;7733;51.554;13.590;2023-03-05T05:27:26;2.10;99.90
15262;DHT22;7733;51.554;13.590;2023-03-05T05:29:51;2.10;99.90
15262;DHT22;7733;51.554;13.590;2023-03-05T05:32:21;2.20;99.90
15262;DHT22;7733;51.554;13.590;2023-03-05T05:34:52;2.10;99.90
15262;DHT22;7733;51.554;13.590;2023-03-05T05:37:19;2.10;99.90
15262;DHT22;7733;51.554;13.590;2023-03-05T05:39:45;2.20;99.90
15262;DHT22;7733;51.554;13.590;2023-03-05T05:42:15;2.10;99.90
15262;DHT22;7733;51.554;13.590;2023-03-05T05:44:42;2.10;99.90
15262;DHT22;7733;51.554;13.590;2023-03-05T05:47:08;2.10;99.90
15262;DHT22;7733;51.554;13.590;2023-03-05T05:49:34;2.10;99.90
15262;DHT22;7733;51.554;13.590;2023-03-05T05:52:00;2.10;99.90
15262;DHT22;7733;51.554;13.590;2023-03-05T05:54:26;2.10;99.90
15262;DHT22;7733;51.554;13.590;2023-03-05T05:56:51;2.10;99.90
15262;DHT22;7733;51.554;13.590;2023-03-05T05:59:17;2.10;99.90
15262;DHT22;7733;51.554;13.590;2023-03-05T06:01:43;2.10;99.90
15262;DHT22;7733;51.554;13.590;2023-03-05T06:04:09;2.10;99.90
15262;DHT22;7733;51.554;13.590;2023-03-05T06:06:34;2.10;99.90
15262;DHT22;7733;51.554;13.590;2023-03-05T06:09:00;2.10;99.90
15262;DHT22;7733;51.554;13.590;2023-03-05T06:11:27;2.10;99.90
15262;DHT22;7733;51.554;13.590;2023-03-05T06:13:53;2.10;99.90
15262;DHT22;7733;51.554;13.590;2023-03-05T06:16:21;2.10;99.90
15262;DHT22;7733;51.554;13.590;2023-03-05T06:18:49;2.10;99.90
15262;DHT22;7733;51.554;13.590;2023-03-05T06:21:17;2.10;99.90
15262;DHT22;7733;51.554;13.590;2023-03-05T06:23:45;2.10;99.90
15262;DHT22;7733;51.554;13.590;2023-03-05T06:26:15;2.10;99.90
15262;DHT22;7733;51.554;13.590;2023-03-05T06:28:43;2.10;99.90
15262;DHT22;7733;51.554;13.590;2023-03-05T06:31:11;2.10;99.90
15262;DHT22;7733;51.554;13.590;2023-03-05T06:33:40;2.10;99.90
15262;DHT22;7733;51.554;13.590;2023-03-05T06:36:09;2.10;99.90
15262;DHT22;7733;51.554;13.590;2023-03-05T06:38:37;2.10;99.90
15262;DHT22;7733;51.554;13.590;2023-03-05T06:41:05;2.10;99.90
15262;DHT22;7733;51.554;13.590;2023-03-05T06:43:36;2.20;99.90
15262;DHT22;7733;51.554;13.590;2023-03-05T06:46:05;2.10;99.90
15262;DHT22;7733;51.554;13.590;2023-03-05T06:48:33;2.00;99.90
15262;DHT22;7733;51.554;13.590;2023-03-05T06:50:59;2.10;99.90
15262;DHT22;7733;51.554;13.590;2023-03-05T06:53:25;2.00;99.90
15262;DHT22;7733;51.554;13.590;2023-03-05T06:55:52;2.00;99.90
15262;DHT22;7733;51.554;13.590;2023-03-05T06:58:19;2.00;99.90
15262;DHT22;7733;51.554;13.590;2023-03-05T07:00:45;2.00;99.90
15262;DHT22;7733;51.554;13.590;2023-03-05T07:03:12;2.00;99.90
15262;DHT22;7733;51.554;13.590;2023-03-05T07:05:42;1.90;99.90
15262;DHT22;7733;51.554;13.590;2023-03-05T07:08:08;1.90;99.90
15262;DHT22;7733;51.554;13.590;2023-03-05T07:10:38;1.80;99.90
15262;DHT22;7733;51.554;13.590;2023-03-05T07:13:06;1.90;99.90
15262;DHT22;7733;51.554;13.590;2023-03-05T07:15:33;1.90;99.90
15262;DHT22;7733;51.554;13.590;2023-03-05T07:18:04;1.90;99.90
15262;DHT22;7733;51.554;13.590;2023-03-05T07:20:33;1.90;99.90
15262;DHT22;7733;51.554;13.590;2023-03-05T07:23:00;2.00;99.90
15262;DHT22;7733;51.554;13.590;2023-03-05T07:25:26;1.90;99.90
15262;DHT22;7733;51.554;13.590;2023-03-05T07:27:52;2.00;99.90
15262;DHT22;7733;51.554;13.590;2023-03-05T07:30:18;1.90;99.90
15262;DHT22;7733;51.554;13.590;2023-03-05T07:32:44;1.90;99.90
15262;DHT22;7733;51.554;13.590;2023-03-05T07:35:09;2.00;99.90
15262;DHT22;7733;51.554;13.590;2023-03-05T07:37:35;2.00;99.90
15262;DHT22;7733;51.554;13.590;2023-03-05T07:40:01;2.00;99.90
15262;DHT22;7733;51.554;13.590;2023-03-05T07:42:27;2.00;99.90
15262;DHT22;7733;51.554;13.590;2023-03-05T07:44:53;2.10;99.90
15262;DHT22;7733;51.554;13.590;2023-03-05T07:47:19;2.10;99.90
15262;DHT22;7733;51.554;13.590;2023-03-05T07:49:44;2.10;99.90
15262;DHT22;7733;51.554;13.590;2023-03-05T07:52:10;2.10;99.90
15262;DHT22;7733;51.554;13.590;2023-03-05T07:54:39;2.20;99.90
15262;DHT22;7733;51.554;13.590;2023-03-05T07:57:06;2.20;99.90
15262;DHT22;7733;51.554;13.590;2023-03-05T07:59:32;2.30;99.90
15262;DHT22;7733;51.554;13.590;2023-03-05T08:01:58;2.30;99.90
15262;DHT22;7733;51.554;13.590;2023-03-05T08:04:24;2.30;99.90
15262;DHT22;7733;51.554;13.590;2023-03-05T08:06:50;2.30;99.90
15262;DHT22;7733;51.554;13.590;2023-03-05T08:09:17;2.30;99.90
15262;DHT22;7733;51.554;13.590;2023-03-05T08:11:44;2.40;99.90
15262;DHT22;7733;51.554;13.590;2023-03-05T08:14:11;2.40;99.90
15262;DHT22;7733;51.554;13.590;2023-03-05T08:16:38;2.50;99.90
15262;DHT22;7733;51.554;13.590;2023-03-05T08:19:05;2.50;99.90
15262;DHT22;7733;51.554;13.590;2023-03-05T08:21:32;2.50;99.90
15262;DHT22;7733;51.554;13.590;2023-03-05T08:24:05;2.60;99.90
15262;DHT22;7733;51.554;13.590;2023-03-05T08:26:34;2.60;99.90
15262;DHT22;7733;51.554;13.590;2023-03-05T08:29:03;2.60;99.90
15262;DHT22;7733;51.554;13.590;2023-03-05T08:31:30;2.60;99.90
15262;DHT22;7733;51.554;13.590;2023-03-05T08:33:58;2.70;99.90
15262;DHT22;7733;51.554;13.590;2023-03-05T08:36:25;2.60;99.90
15262;DHT22;7733;51.554;13.590;2023-03-05T08:38:52;2.70;99.90
15262;DHT22;7733;51.554;13.590;2023-03-05T08:41:19;2.80;99.90
15262;DHT22;7733;51.554;13.590;2023-03-05T08:43:45;2.80;99.90
15262;DHT22;7733;51.554;13.590;2023-03-05T08:46:12;2.80;99.90
15262;DHT22;7733;51.554;13.590;2023-03-05T08:48:39;2.70;99.90
15262;DHT22;7733;51.554;13.590;2023-03-05T08:51:14;2.30;99.90
15262;DHT22;7733;51.554;13.590;2023-03-05T08:53:42;1.90;99.90
15262;DHT22;7733;51.554;13.590;2023-03-05T08:56:09;1.60;99.90
15262;DHT22;7733;51.554;13.590;2023-03-05T08:58:34;1.60;99.90
15262;DHT22;7733;51.554;13.590;2023-03-05T09:01:00;1.60;99.90
15262;DHT22;7733;51.554;13.590;2023-03-05T09:03:26;1.70;99.90
15262;DHT22;7733;51.554;13.590;2023-03-05T09:05:52;1.80;99.90
15262;DHT22;7733;51.554;13.590;2023-03-05T09:08:18;1.70;99.90
15262;DHT22;7733;51.554;13.590;2023-03-05T09:10:45;1.60;99.90
15262;DHT22;7733;51.554;13.590;2023-03-05T09:13:11;1.60;99.90
15262;DHT22;7733;51.554;13.590;2023-03-05T09:15:37;1.60;99.90
15262;DHT22;7733;51.554;13.590;2023-03-05T09:18:03;1.60;99.90
15262;DHT22;7733;51.554;13.590;2023-03-05T09:20:29;1.50;99.90
15262;DHT22;7733;51.554;13.590;2023-03-05T09:22:55;1.40;99.90
15262;DHT22;7733;51.554;13.590;2023-03-05T09:25:21;1.50;99.90
15262;DHT22;7733;51.554;13.590;2023-03-05T09:27:47;1.50;99.90
15262;DHT22;7733;51.554;13.590;2023-03-05T09:30:13;1.60;99.90
15262;DHT22;7733;51.554;13.590;2023-03-05T09:32:40;1.60;99.90
15262;DHT22;7733;51.554;13.590;2023-03-05T09:35:06;1.50;99.90
15262;DHT22;7733;51.554;13.590;2023-03-05T09:37:32;1.40;99.90
15262;DHT22;7733;51.554;13.590;2023-03-05T09:39:59;1.20;99.90
15262;DHT22;7733;51.554;13.590;2023-03-05T09:42:53;1.20;99.90
15262;DHT22;7733;51.554;13.590;2023-03-05T09:45:35;1.10;99.90
15262;DHT22;7733;51.554;13.590;2023-03-05T09:48:20;1.20;99.90
15262;DHT22;7733;51.554;13.590;2023-03-05T09:51:00;1.40;99.90
15262;DHT22;7733;51.554;13.590;2023-03-05T09:56:13;2.00;99.90
15262;DHT22;7733;51.554;13.590;2023-03-05T09:58:55;2.40;99.90
15262;DHT22;7733;51.554;13.590;2023-03-05T10:01:38;2.70;99.90
15262;DHT22;7733;51.554;13.590;2023-03-05T10:04:10;2.70;99.90
15262;DHT22;7733;51.554;13.590;2023-03-05T10:06:55;3.00;99.90
15262;DHT22;7733;51.554;13.590;2023-03-05T10:09:52;3.30;99.90
15262;DHT22;7733;51.554;13.590;2023-03-05T10:12:37;3.30;99.90
15262;DHT22;7733;51.554;13.590;2023-03-05T10:15:15;3.30;99.90
15262;DHT22;7733;51.554;13.590;2023-03-05T10:18:06;3.50;99.90
15262;DHT22;7733;51.554;13.590;2023-03-05T10:29:10;3.70;99.90
15262;DHT22;7733;51.554;13.590;2023-03-05T10:40:45;3.70;99.90
15262;DHT22;7733;51.554;13.590;2023-03-05T10:43:42;3.70;99.90
15262;DHT22;7733;51.554;13.590;2023-03-05T10:46:21;3.60;99.90
15262;DHT22;7733;51.554;13.590;2023-03-05T10:48:58;3.50;99.90
15262;DHT22;7733;51.554;13.590;2023-03-05T10:54:23;3.20;99.90
15262;DHT22;7733;51.554;13.590;2023-03-05T11:00:06;2.80;99.90
15262;DHT22;7733;51.554;13.590;2023-03-05T11:03:08;2.80;99.90
15262;DHT22;7733;51.554;13.590;2023-03-05T11:11:19;3.00;99.90
15262;DHT22;7733;51.554;13.590;2023-03-05T11:13:58;2.90;99.90
15262;DHT22;7733;51.554;13.590;2023-03-05T11:16:46;3.00;99.90
15262;DHT22;7733;51.554;13.590;2023-03-05T11:21:45;3.10;99.90
15262;DHT22;7733;51.554;13.590;2023-03-05T11:24:16;3.10;99.90
15262;DHT22;7733;51.554;13.590;2023-03-05T11:26:51;3.10;99.90
15262;DHT22;7733;51.554;13.590;2023-03-05T11:32:18;3.20;99.90
15262;DHT22;7733;51.554;13.590;2023-03-05T11:34:44;3.10;99.90
15262;DHT22;7733;51.554;13.590;2023-03-05T11:37:22;3.10;99.90
15262;DHT22;7733;51.554;13.590;2023-03-05T11:40:21;3.10;99.90
15262;DHT22;7733;51.554;13.590;2023-03-05T11:43:00;3.30;99.90
15262;DHT22;7733;51.554;13.590;2023-03-05T11:45:28;3.40;99.90
15262;DHT22;7733;51.554;13.590;2023-03-05T11:48:19;3.50;99.90
15262;DHT22;7733;51.554;13.590;2023-03-05T11:50:54;3.50;99.90
15262;DHT22;7733;51.554;13.590;2023-03-05T11:53:30;3.80;99.90
15262;DHT22;7733;51.554;13.590;2023-03-05T11:56:20;3.90;99.90
15262;DHT22;7733;51.554;13.590;2023-03-05T12:01:49;4.10;99.90
15262;DHT22;7733;51.554;13.590;2023-03-05T12:04:21;4.10;99.90
15262;DHT22;7733;51.554;13.590;2023-03-05T12:09:36;3.80;99.90
15262;DHT22;7733;51.554;13.590;2023-03-05T12:12:36;3.80;99.90
15262;DHT22;7733;51.554;13.590;2023-03-05T12:22:42;3.80;99.90
15262;DHT22;7733;51.554;13.590;2023-03-05T12:27:49;3.90;99.90
15262;DHT22;7733;51.554;13.590;2023-03-05T12:33:04;3.70;99.90
15262;DHT22;7733;51.554;13.590;2023-03-05T12:35:33;3.80;99.90
15262;DHT22;7733;51.554;13.590;2023-03-05T12:41:32;3.90;99.90
15262;DHT22;7733;51.554;13.590;2023-03-05T12:51:43;3.80;99.90
15262;DHT22;7733;51.554;13.590;2023-03-05T12:54:38;4.00;99.90
15262;DHT22;7733;51.554;13.590;2023-03-05T12:57:21;4.00;99.90
15262;DHT22;7733;51.554;13.590;2023-03-05T13:00:42;3.90;99.90
15262;DHT22;7733;51.554;13.590;2023-03-05T13:03:11;3.90;99.90
15262;DHT22;7733;51.554;13.590;2023-03-05T13:05:50;4.00;99.90
15262;DHT22;7733;51.554;13.590;2023-03-05T13:08:23;4.10;99.90
15262;DHT22;7733;51.554;13.590;2023-03-05T13:10:58;4.00;99.90
15262;DHT22;7733;51.554;13.590;2023-03-05T13:13:28;3.90;99.90
15262;DHT22;7733;51.554;13.590;2023-03-05T13:15:57;3.90;99.90
15262;DHT22;7733;51.554;13.590;2023-03-05T13:18:26;3.90;99.90
15262;DHT22;7733;51.554;13.590;2023-03-05T13:23:29;3.90;99.90
15262;DHT22;7733;51.554;13.590;2023-03-05T13:26:11;3.80;99.90
15262;DHT22;7733;51.554;13.590;2023-03-05T13:29:19;3.80;99.90
15262;DHT22;7733;51.554;13.590;2023-03-05T13:32:35;3.70;99.90
15262;DHT22;7733;51.554;13.590;2023-03-05T13:35:00;3.70;99.90
15262;DHT22;7733;51.554;13.590;2023-03-05T13:37:29;3.40;99.90
15262;DHT22;7733;51.554;13.590;2023-03-05T13:40:14;3.50;99.90
15262;DHT22;7733;51.554;13.590;2023-03-05T13:42:45;3.50;99.90
15262;DHT22;7733;51.554;13.590;2023-03-05T13:45:27;3.50;99.90
15262;DHT22;7733;51.554;13.590;2023-03-05T13:48:00;3.50;99.90
15262;DHT22;7733;51.554;13.590;2023-03-05T13:50:30;3.60;99.90
15262;DHT22;7733;51.554;13.590;2023-03-05T13:53:15;3.50;99.90
15262;DHT22;7733;51.554;13.590;2023-03-05T13:55:51;3.60;99.90
15262;DHT22;7733;51.554;13.590;2023-03-05T13:58:48;3.60;99.90
15262;DHT22;7733;51.554;13.590;2023-03-05T14:01:26;3.60;99.90
15262;DHT22;7733;51.554;13.590;2023-03-05T14:04:29;3.60;99.90
15262;DHT22;7733;51.554;13.590;2023-03-05T14:07:15;3.70;99.90
15262;DHT22;7733;51.554;13.590;2023-03-05T14:09:50;3.70;99.90
15262;DHT22;7733;51.554;13.590;2023-03-05T14:12:36;3.70;99.90
15262;DHT22;7733;51.554;13.590;2023-03-05T14:15:29;3.70;99.90
15262;DHT22;7733;51.554;13.590;2023-03-05T14:20:58;3.70;99.90
15262;DHT22;7733;51.554;13.590;2023-03-05T14:29:17;3.60;99.90
15262;DHT22;7733;51.554;13.590;2023-03-05T14:31:55;3.60;99.90
15262;DHT22;7733;51.554;13.590;2023-03-05T14:34:31;3.50;99.90
15262;DHT22;7733;51.554;13.590;2023-03-05T14:37:06;3.70;99.90
15262;DHT22;7733;51.554;13.590;2023-03-05T14:42:28;4.00;99.90
15262;DHT22;7733;51.554;13.590;2023-03-05T14:45:14;4.00;99.90
15262;DHT22;7733;51.554;13.590;2023-03-05T14:47:45;3.90;99.90
15262;DHT22;7733;51.554;13.590;2023-03-05T14:50:18;3.90;99.90
15262;DHT22;7733;51.554;13.590;2023-03-05T14:52:49;3.80;99.90
15262;DHT22;7733;51.554;13.590;2023-03-05T14:55:18;3.80;99.90
15262;DHT22;7733;51.554;13.590;2023-03-05T14:57:47;3.90;99.90
15262;DHT22;7733;51.554;13.590;2023-03-05T15:00:20;4.00;99.90
15262;DHT22;7733;51.554;13.590;2023-03-05T15:02:48;4.00;99.90
15262;DHT22;7733;51.554;13.590;2023-03-05T15:05:15;3.80;99.90
15262;DHT22;7733;51.554;13.590;2023-03-05T15:07:44;3.70;99.90
15262;DHT22;7733;51.554;13.590;2023-03-05T15:10:15;3.60;99.90
15262;DHT22;7733;51.554;13.590;2023-03-05T15:12:43;3.70;99.90
15262;DHT22;7733;51.554;13.590;2023-03-05T15:15:19;3.70;99.90
15262;DHT22;7733;51.554;13.590;2023-03-05T15:17:47;3.80;99.90
15262;DHT22;7733;51.554;13.590;2023-03-05T15:20:23;3.80;99.90
15262;DHT22;7733;51.554;13.590;2023-03-05T15:22:51;3.80;99.90
15262;DHT22;7733;51.554;13.590;2023-03-05T15:25:19;3.80;99.90
15262;DHT22;7733;51.554;13.590;2023-03-05T15:27:48;3.80;99.90
15262;DHT22;7733;51.554;13.590;2023-03-05T15:30:23;3.80;99.90
15262;DHT22;7733;51.554;13.590;2023-03-05T15:32:52;3.80;99.90
15262;DHT22;7733;51.554;13.590;2023-03-05T15:35:20;3.80;99.90
15262;DHT22;7733;51.554;13.590;2023-03-05T15:37:47;3.80;99.90
15262;DHT22;7733;51.554;13.590;2023-03-05T15:40:13;3.80;99.90
15262;DHT22;7733;51.554;13.590;2023-03-05T15:42:39;3.80;99.90
15262;DHT22;7733;51.554;13.590;2023-03-05T15:45:06;3.80;99.90
15262;DHT22;7733;51.554;13.590;2023-03-05T15:47:32;3.80;99.90
15262;DHT22;7733;51.554;13.590;2023-03-05T15:49:58;3.80;99.90
15262;DHT22;7733;51.554;13.590;2023-03-05T15:52:24;3.80;99.90
15262;DHT22;7733;51.554;13.590;2023-03-05T15:54:49;3.80;99.90
15262;DHT22;7733;51.554;13.590;2023-03-05T15:57:16;3.80;99.90
15262;DHT22;7733;51.554;13.590;2023-03-05T15:59:46;3.80;99.90
15262;DHT22;7733;51.554;13.590;2023-03-05T16:02:11;3.80;99.90
15262;DHT22;7733;51.554;13.590;2023-03-05T16:04:37;3.80;99.90
15262;DHT22;7733;51.554;13.590;2023-03-05T16:07:04;3.80;99.90
15262;DHT22;7733;51.554;13.590;2023-03-05T16:09:36;3.80;99.90
15262;DHT22;7733;51.554;13.590;2023-03-05T16:12:07;3.70;99.90
15262;DHT22;7733;51.554;13.590;2023-03-05T16:14:38;3.70;99.90
15262;DHT22;7733;51.554;13.590;2023-03-05T16:17:05;3.70;99.90
15262;DHT22;7733;51.554;13.590;2023-03-05T16:19:34;3.60;99.90
15262;DHT22;7733;51.554;13.590;2023-03-05T16:22:03;3.60;99.90
15262;DHT22;7733;51.554;13.590;2023-03-05T16:24:29;3.50;99.90
15262;DHT22;7733;51.554;13.590;2023-03-05T16:26:55;3.50;99.90
15262;DHT22;7733;51.554;13.590;2023-03-05T16:29:20;3.50;99.90
15262;DHT22;7733;51.554;13.590;2023-03-05T16:31:46;3.50;99.90
15262;DHT22;7733;51.554;13.590;2023-03-05T16:34:12;3.50;99.90
15262;DHT22;7733;51.554;13.590;2023-03-05T16:36:39;3.50;99.90
15262;DHT22;7733;51.554;13.590;2023-03-05T16:39:10;3.50;99.90
15262;DHT22;7733;51.554;13.590;2023-03-05T16:41:36;3.50;99.90
15262;DHT22;7733;51.554;13.590;2023-03-05T16:44:01;3.50;99.90
15262;DHT22;7733;51.554;13.590;2023-03-05T16:46:29;3.50;99.90
15262;DHT22;7733;51.554;13.590;2023-03-05T16:48:57;3.50;99.90
15262;DHT22;7733;51.554;13.590;2023-03-05T16:51:23;3.40;99.90
15262;DHT22;7733;51.554;13.590;2023-03-05T16:53:49;3.30;99.90
15262;DHT22;7733;51.554;13.590;2023-03-05T16:56:15;3.30;99.90
15262;DHT22;7733;51.554;13.590;2023-03-05T16:58:41;3.30;99.90
15262;DHT22;7733;51.554;13.590;2023-03-05T17:01:11;3.30;99.90
15262;DHT22;7733;51.554;13.590;2023-03-05T17:03:39;3.30;99.90
15262;DHT22;7733;51.554;13.590;2023-03-05T17:06:35;3.30;99.90
15262;DHT22;7733;51.554;13.590;2023-03-05T17:09:02;3.30;99.90
15262;DHT22;7733;51.554;13.590;2023-03-05T17:11:29;3.30;99.90
15262;DHT22;7733;51.554;13.590;2023-03-05T17:13:55;3.30;99.90
15262;DHT22;7733;51.554;13.590;2023-03-05T17:16:21;3.30;99.90
15262;DHT22;7733;51.554;13.590;2023-03-05T17:18:47;3.30;99.90
15262;DHT22;7733;51.554;13.590;2023-03-05T17:21:14;3.30;99.90
15262;DHT22;7733;51.554;13.590;2023-03-05T17:23:40;3.30;99.90
15262;DHT22;7733;51.554;13.590;2023-03-05T17:26:09;3.30;99.90
15262;DHT22;7733;51.554;13.590;2023-03-05T17:28:37;3.30;99.90